createdAt,value
2023-06-19T00:00:27.161Z,19.30
2023-06-19T00:01:27.289Z,19.29
2023-06-19T00:02:27.480Z,19.29
2023-06-19T00:03:27.532Z,19.29
2023-06-19T00:04:27.930Z,19.30
2023-06-19T00:05:27.681Z,19.29
2023-06-19T00:06:27.767Z,19.29
2023-06-19T00:07:27.854Z,19.27
2023-06-19T00:08:27.945Z,19.26
2023-06-19T00:09:28.013Z,19.24
2023-06-19T00:10:28.210Z,19.24
2023-06-19T00:11:28.269Z,19.23
2023-06-19T00:12:28.364Z,19.20
2023-06-19T00:13:28.442Z,19.22
2023-06-19T00:14:28.657Z,19.19
2023-06-19T00:15:28.630Z,19.19
2023-06-19T00:16:28.703Z,19.20
2023-06-19T00:17:28.803Z,19.19
2023-06-19T00:18:28.887Z,19.17
2023-06-19T00:19:28.970Z,19.16
2023-06-19T00:20:29.054Z,19.15
2023-06-19T00:21:29.149Z,19.15
2023-06-19T00:22:29.231Z,19.16
2023-06-19T00:23:29.298Z,19.17
2023-06-19T00:24:29.373Z,19.17
2023-06-19T00:25:29.436Z,19.20
2023-06-19T00:26:29.505Z,19.23
2023-06-19T00:27:29.609Z,19.27
2023-06-19T00:28:29.716Z,19.27
2023-06-19T00:29:29.764Z,19.30
2023-06-19T00:30:29.863Z,19.30
2023-06-19T00:31:29.929Z,19.30
2023-06-19T00:32:30.235Z,19.30
2023-06-19T00:33:30.230Z,19.37
2023-06-19T00:34:30.328Z,19.38
2023-06-19T00:35:30.415Z,19.39
2023-06-19T00:36:30.495Z,19.39
2023-06-19T00:37:30.589Z,19.39
2023-06-19T00:38:30.687Z,19.39
2023-06-19T00:39:30.772Z,19.38
2023-06-19T00:40:30.880Z,19.41
2023-06-19T00:41:30.980Z,19.42
2023-06-19T00:42:31.087Z,19.41
2023-06-19T00:43:31.158Z,19.39
2023-06-19T00:44:31.273Z,19.38
2023-06-19T00:45:31.372Z,19.37
2023-06-19T00:46:31.461Z,19.37
2023-06-19T00:47:31.533Z,19.32
2023-06-19T00:48:31.619Z,19.30
2023-06-19T00:49:31.691Z,19.30
2023-06-19T00:50:31.797Z,19.29
2023-06-19T00:51:31.865Z,19.26
2023-06-19T00:52:31.982Z,19.27
2023-06-19T00:53:32.032Z,19.27
2023-06-19T00:54:32.120Z,19.27
2023-06-19T00:55:32.221Z,19.26
2023-06-19T00:56:32.307Z,19.26
2023-06-19T00:57:32.392Z,19.23
2023-06-19T00:58:33.101Z,19.22
2023-06-19T00:59:32.657Z,19.20
2023-06-19T01:00:32.761Z,19.23
2023-06-19T01:01:32.876Z,19.24
2023-06-19T01:02:33.054Z,19.23
2023-06-19T01:03:33.103Z,19.23
2023-06-19T01:04:33.113Z,19.24
2023-06-19T01:05:33.165Z,19.24
2023-06-19T01:06:33.252Z,19.26
2023-06-19T01:07:33.329Z,19.27
2023-06-19T01:08:33.413Z,19.24
2023-06-19T01:09:33.498Z,19.23
2023-06-19T01:10:33.606Z,19.19
2023-06-19T01:11:33.685Z,19.17
2023-06-19T01:12:33.762Z,19.17
2023-06-19T01:13:33.881Z,19.12
2023-06-19T01:14:33.976Z,19.12
2023-06-19T01:15:34.055Z,19.09
2023-06-19T01:16:34.202Z,19.07
2023-06-19T01:17:34.443Z,19.00
2023-06-19T01:18:34.393Z,19.00
2023-06-19T01:19:34.495Z,18.98
2023-06-19T01:20:34.616Z,18.98
2023-06-19T01:21:34.704Z,19.00
2023-06-19T01:22:34.790Z,18.98
2023-06-19T01:23:34.862Z,18.97
2023-06-19T01:24:35.094Z,18.92
2023-06-19T01:25:35.072Z,18.92
2023-06-19T01:26:35.157Z,18.92
2023-06-19T01:27:35.244Z,18.89
2023-06-19T01:28:35.326Z,18.92
2023-06-19T01:29:35.415Z,18.96
2023-06-19T01:30:35.545Z,18.92
2023-06-19T01:31:35.651Z,18.92
2023-06-19T01:32:35.785Z,18.92
2023-06-19T01:33:35.800Z,18.91
2023-06-19T01:34:37.945Z,18.91
2023-06-19T01:35:36.030Z,18.86
2023-06-19T01:36:36.218Z,18.86
2023-06-19T01:37:36.338Z,18.85
2023-06-19T01:38:36.403Z,18.82
2023-06-19T01:39:36.481Z,18.81
2023-06-19T01:40:36.566Z,18.76
2023-06-19T01:41:36.625Z,18.74
2023-06-19T01:42:36.730Z,18.70
2023-06-19T01:43:36.794Z,18.73
2023-06-19T01:44:36.884Z,18.70
2023-06-19T01:45:36.964Z,18.73
2023-06-19T01:46:37.081Z,18.71
2023-06-19T01:47:37.130Z,18.74
2023-06-19T01:48:37.211Z,18.73
2023-06-19T01:49:37.280Z,18.71
2023-06-19T01:50:37.481Z,18.73
2023-06-19T01:51:45.090Z,18.71
2023-06-19T01:52:37.720Z,18.74
2023-06-19T01:53:37.857Z,18.73
2023-06-19T01:54:37.963Z,18.76
2023-06-19T01:55:38.083Z,18.73
2023-06-19T01:56:38.142Z,18.74
2023-06-19T01:57:38.246Z,18.74
2023-06-19T01:58:38.347Z,18.76
2023-06-19T01:59:38.444Z,18.74
2023-06-19T02:00:39.131Z,18.74
2023-06-19T02:01:38.659Z,18.74
2023-06-19T02:02:39.033Z,18.79
2023-06-19T02:03:38.914Z,18.81
2023-06-19T02:04:39.006Z,18.82
2023-06-19T02:05:39.105Z,18.83
2023-06-19T02:06:39.162Z,18.83
2023-06-19T02:07:39.266Z,18.85
2023-06-19T02:08:39.349Z,18.82
2023-06-19T02:09:39.435Z,18.82
2023-06-19T02:10:39.550Z,18.82
2023-06-19T02:11:39.644Z,18.82
2023-06-19T02:12:39.736Z,18.83
2023-06-19T02:13:40.526Z,18.79
2023-06-19T02:14:39.872Z,18.78
2023-06-19T02:15:40.004Z,18.76
2023-06-19T02:16:40.114Z,18.76
2023-06-19T02:17:40.234Z,18.74
2023-06-19T02:18:40.278Z,18.71
2023-06-19T02:19:40.367Z,18.70
2023-06-19T02:20:40.453Z,18.67
2023-06-19T02:21:40.526Z,18.66
2023-06-19T02:22:40.604Z,18.60
2023-06-19T02:23:40.681Z,18.58
2023-06-19T02:24:41.032Z,18.57
2023-06-19T02:25:40.838Z,18.52
2023-06-19T02:26:40.946Z,18.51
2023-06-19T02:27:41.041Z,18.45
2023-06-19T02:28:41.124Z,18.42
2023-06-19T02:29:41.234Z,18.42
2023-06-19T02:30:41.317Z,18.41
2023-06-19T02:31:41.460Z,18.43
2023-06-19T02:32:41.600Z,18.41
2023-06-19T02:33:41.700Z,18.43
2023-06-19T02:34:41.803Z,18.39
2023-06-19T02:35:41.914Z,18.41
2023-06-19T02:36:42.007Z,18.39
2023-06-19T02:37:42.104Z,18.43
2023-06-19T02:38:42.198Z,18.48
2023-06-19T02:39:42.305Z,18.51
2023-06-19T02:40:42.424Z,18.52
2023-06-19T02:41:42.530Z,18.55
2023-06-19T02:42:42.630Z,18.55
2023-06-19T02:43:42.717Z,18.57
2023-06-19T02:44:42.785Z,18.52
2023-06-19T02:45:42.935Z,18.51
2023-06-19T02:46:43.007Z,18.46
2023-06-19T02:47:43.191Z,18.48
2023-06-19T02:48:43.149Z,18.48
2023-06-19T02:49:43.265Z,18.45
2023-06-19T02:50:44.342Z,18.46
2023-06-19T02:51:43.476Z,18.48
2023-06-19T02:52:43.546Z,18.48
2023-06-19T02:53:43.648Z,18.46
2023-06-19T02:54:43.741Z,18.43
2023-06-19T02:55:43.848Z,18.42
2023-06-19T02:56:43.934Z,18.45
2023-06-19T02:57:44.063Z,18.46
2023-06-19T02:58:44.159Z,18.43
2023-06-19T02:59:44.260Z,18.43
2023-06-19T03:00:44.352Z,18.42
2023-06-19T03:01:44.548Z,18.42
2023-06-19T03:02:44.697Z,18.42
2023-06-19T03:03:44.702Z,18.45
2023-06-19T03:04:44.758Z,18.46
2023-06-19T03:05:44.908Z,18.43
2023-06-19T03:06:45.047Z,18.45
2023-06-19T03:07:45.158Z,18.48
2023-06-19T03:08:45.276Z,18.52
2023-06-19T03:09:45.385Z,18.53
2023-06-19T03:10:45.459Z,18.52
2023-06-19T03:11:45.555Z,18.53
2023-06-19T03:12:45.646Z,18.53
2023-06-19T03:13:45.740Z,18.53
2023-06-19T03:14:45.822Z,18.53
2023-06-19T03:15:45.942Z,18.55
2023-06-19T03:16:46.062Z,18.57
2023-06-19T03:17:46.161Z,18.57
2023-06-19T03:18:46.397Z,18.60
2023-06-19T03:19:46.329Z,18.61
2023-06-19T03:20:46.423Z,18.63
2023-06-19T03:21:46.506Z,18.68
2023-06-19T03:22:46.633Z,18.71
2023-06-19T03:23:46.755Z,18.78
2023-06-19T03:24:46.884Z,18.78
2023-06-19T03:25:46.960Z,18.78
2023-06-19T03:26:47.028Z,18.79
2023-06-19T03:27:47.126Z,18.82
2023-06-19T03:28:47.196Z,18.83
2023-06-19T03:29:47.329Z,18.82
2023-06-19T03:30:47.375Z,18.82
2023-06-19T03:31:47.499Z,18.82
2023-06-19T03:32:47.615Z,18.86
2023-06-19T03:33:47.667Z,18.89
2023-06-19T03:34:47.749Z,18.89
2023-06-19T03:35:47.822Z,18.92
2023-06-19T03:36:47.931Z,18.92
2023-06-19T03:37:48.005Z,18.94
2023-06-19T03:38:48.127Z,18.96
2023-06-19T03:39:48.224Z,18.98
2023-06-19T03:40:48.306Z,19.00
2023-06-19T03:41:48.437Z,19.01
2023-06-19T03:42:48.541Z,19.01
2023-06-19T03:43:48.629Z,19.05
2023-06-19T03:44:48.715Z,19.07
2023-06-19T03:45:48.831Z,19.07
2023-06-19T03:46:48.958Z,19.11
2023-06-19T03:47:49.090Z,19.12
2023-06-19T03:48:49.140Z,19.16
2023-06-19T03:49:49.219Z,19.19
2023-06-19T03:50:49.298Z,19.22
2023-06-19T03:51:49.365Z,19.20
2023-06-19T03:52:49.462Z,19.19
2023-06-19T03:53:49.550Z,19.19
2023-06-19T03:54:49.601Z,19.19
2023-06-19T03:55:49.702Z,19.20
2023-06-19T03:56:49.783Z,19.22
2023-06-19T03:57:49.902Z,19.22
2023-06-19T03:58:49.996Z,19.23
2023-06-19T03:59:50.053Z,19.22
2023-06-19T04:00:50.139Z,19.23
2023-06-19T04:01:51.384Z,19.24
2023-06-19T04:02:50.575Z,19.29
2023-06-19T04:03:50.482Z,19.29
2023-06-19T04:04:50.558Z,19.30
2023-06-19T04:05:51.286Z,19.32
2023-06-19T04:06:50.775Z,19.32
2023-06-19T04:07:50.908Z,19.29
2023-06-19T04:08:50.999Z,19.26
2023-06-19T04:09:51.079Z,19.29
2023-06-19T04:10:51.148Z,19.26
2023-06-19T04:11:52.180Z,19.24
2023-06-19T04:12:51.370Z,19.26
2023-06-19T04:13:51.458Z,19.27
2023-06-19T04:14:51.559Z,19.30
2023-06-19T04:15:51.742Z,19.30
2023-06-19T04:16:51.771Z,19.37
2023-06-19T04:17:51.898Z,19.37
2023-06-19T04:18:51.977Z,19.41
2023-06-19T04:19:52.062Z,19.41
2023-06-19T04:20:52.151Z,19.41
2023-06-19T04:21:52.245Z,19.44
2023-06-19T04:22:52.329Z,19.45
2023-06-19T04:23:52.477Z,19.47
2023-06-19T04:24:52.548Z,19.52
2023-06-19T04:25:52.645Z,19.52
2023-06-19T04:26:52.731Z,19.56
2023-06-19T04:27:52.835Z,19.53
2023-06-19T04:28:52.956Z,19.53
2023-06-19T04:29:53.031Z,19.55
2023-06-19T04:30:53.105Z,19.57
2023-06-19T04:31:53.274Z,19.56
2023-06-19T04:32:53.423Z,19.57
2023-06-19T04:33:53.491Z,19.59
2023-06-19T04:34:53.603Z,19.57
2023-06-19T04:35:53.660Z,19.59
2023-06-19T04:36:53.751Z,19.59
2023-06-19T04:37:53.881Z,19.62
2023-06-19T04:38:53.953Z,19.63
2023-06-19T04:39:54.029Z,19.63
2023-06-19T04:40:54.092Z,19.63
2023-06-19T04:41:54.269Z,19.64
2023-06-19T04:42:54.477Z,19.64
2023-06-19T04:43:54.451Z,19.63
2023-06-19T04:44:54.548Z,19.62
2023-06-19T04:45:54.734Z,19.63
2023-06-19T04:46:54.764Z,19.62
2023-06-19T04:47:54.880Z,19.62
2023-06-19T04:48:54.988Z,19.62
2023-06-19T04:49:55.068Z,19.62
2023-06-19T04:50:55.139Z,19.62
2023-06-19T04:51:55.223Z,19.63
2023-06-19T04:52:55.314Z,19.64
2023-06-19T04:53:55.521Z,19.66
2023-06-19T04:54:56.174Z,19.67
2023-06-19T04:55:55.648Z,19.66
2023-06-19T04:56:55.690Z,19.66
2023-06-19T04:57:55.794Z,19.64
2023-06-19T04:58:55.871Z,19.70
2023-06-19T04:59:56.540Z,19.71
2023-06-19T05:00:56.187Z,19.72
2023-06-19T05:01:56.300Z,19.74
2023-06-19T05:02:56.438Z,19.72
2023-06-19T05:03:56.541Z,19.72
2023-06-19T05:04:56.569Z,19.71
2023-06-19T05:05:56.692Z,19.72
2023-06-19T05:06:56.722Z,19.77
2023-06-19T05:07:56.819Z,19.78
2023-06-19T05:08:56.897Z,19.78
2023-06-19T05:09:56.987Z,19.78
2023-06-19T05:10:57.179Z,19.82
2023-06-19T05:11:57.291Z,19.82
2023-06-19T05:12:57.455Z,19.82
2023-06-19T05:13:57.499Z,19.82
2023-06-19T05:14:57.580Z,19.82
2023-06-19T05:15:57.721Z,19.82
2023-06-19T05:16:57.827Z,19.85
2023-06-19T05:17:58.021Z,19.85
2023-06-19T05:18:57.987Z,19.90
2023-06-19T05:19:58.086Z,19.89
2023-06-19T05:20:58.164Z,19.89
2023-06-19T05:21:58.220Z,19.87
2023-06-19T05:22:58.364Z,19.89
2023-06-19T05:23:58.494Z,19.90
2023-06-19T05:24:58.570Z,19.93
2023-06-19T05:25:58.739Z,19.94
2023-06-19T05:26:58.777Z,19.96
2023-06-19T05:27:58.863Z,19.94
2023-06-19T05:28:58.961Z,19.97
2023-06-19T05:29:59.022Z,20.00
2023-06-19T05:30:59.213Z,20.03
2023-06-19T05:31:59.272Z,20.00
2023-06-19T05:32:59.421Z,20.00
2023-06-19T05:33:59.492Z,20.00
2023-06-19T05:34:59.654Z,20.03
2023-06-19T05:35:59.711Z,20.07
2023-06-19T05:36:59.792Z,20.07
2023-06-19T05:37:59.916Z,20.14
2023-06-19T05:39:00.031Z,20.18
2023-06-19T05:40:00.146Z,20.21
2023-06-19T05:41:00.224Z,20.21
2023-06-19T05:42:00.284Z,20.22
2023-06-19T05:43:00.484Z,20.24
2023-06-19T05:44:00.608Z,20.24
2023-06-19T05:45:00.632Z,20.26
2023-06-19T05:46:00.778Z,20.26
2023-06-19T05:47:00.878Z,20.29
2023-06-19T05:48:01.082Z,20.32
2023-06-19T05:49:01.030Z,20.37
2023-06-19T05:50:01.126Z,20.40
2023-06-19T05:51:01.187Z,20.48
2023-06-19T05:52:01.257Z,20.50
2023-06-19T05:53:01.344Z,20.55
2023-06-19T05:54:01.478Z,20.60
2023-06-19T05:55:01.535Z,20.66
2023-06-19T05:56:01.607Z,20.73
2023-06-19T05:57:01.686Z,20.75
2023-06-19T05:58:01.845Z,20.78
2023-06-19T05:59:01.805Z,20.85
2023-06-19T06:00:01.900Z,20.83
2023-06-19T06:01:01.999Z,20.83
2023-06-19T06:02:02.036Z,20.89
2023-06-19T06:03:02.152Z,20.93
2023-06-19T06:04:02.252Z,20.95
2023-06-19T06:05:02.307Z,20.98
2023-06-19T06:06:02.354Z,21.03
2023-06-19T06:07:02.493Z,21.05
2023-06-19T06:08:02.589Z,21.11
2023-06-19T06:09:02.654Z,21.13
2023-06-19T06:10:02.711Z,21.11
2023-06-19T06:11:02.852Z,21.08
2023-06-19T06:12:02.942Z,20.98
2023-06-19T06:13:02.984Z,20.93
2023-06-19T06:14:03.040Z,20.89
2023-06-19T06:15:03.120Z,20.88
2023-06-19T06:16:03.203Z,20.90
2023-06-19T06:17:03.309Z,20.92
2023-06-19T06:18:03.414Z,20.96
2023-06-19T06:19:03.454Z,21.03
2023-06-19T06:20:03.530Z,21.05
2023-06-19T06:21:03.585Z,21.11
2023-06-19T06:22:03.752Z,21.13
2023-06-19T06:23:03.809Z,21.15
2023-06-19T06:24:03.909Z,21.19
2023-06-19T06:25:03.959Z,21.25
2023-06-19T06:26:04.278Z,21.25
2023-06-19T06:27:04.073Z,21.23
2023-06-19T06:28:04.152Z,21.19
2023-06-19T06:29:04.217Z,21.25
2023-06-19T06:30:04.301Z,21.29
2023-06-19T06:31:04.404Z,21.32
2023-06-19T06:32:04.523Z,21.29
2023-06-19T06:33:04.705Z,21.33
2023-06-19T06:34:04.637Z,21.40
2023-06-19T06:35:04.697Z,21.37
2023-06-19T06:36:06.499Z,21.33
2023-06-19T06:37:06.885Z,21.38
2023-06-19T06:38:04.923Z,21.45
2023-06-19T06:39:04.998Z,21.50
2023-06-19T06:40:05.042Z,21.50
2023-06-19T06:41:05.125Z,21.50
2023-06-19T06:42:05.180Z,21.50
2023-06-19T06:43:06.222Z,21.54
2023-06-19T06:44:05.266Z,21.60
2023-06-19T06:45:05.370Z,21.59
2023-06-19T06:46:05.409Z,21.54
2023-06-19T06:47:05.502Z,21.50
2023-06-19T06:48:05.816Z,21.48
2023-06-19T06:49:05.623Z,21.47
2023-06-19T06:50:05.710Z,21.40
2023-06-19T06:51:05.793Z,21.41
2023-06-19T06:52:05.833Z,21.50
2023-06-19T06:53:05.949Z,21.53
2023-06-19T06:54:06.007Z,21.59
2023-06-19T06:55:06.067Z,21.65
2023-06-19T06:56:06.129Z,21.60
2023-06-19T06:57:06.192Z,21.60
2023-06-19T06:58:06.265Z,21.65
2023-06-19T06:59:06.938Z,21.62
2023-06-19T07:00:06.440Z,21.69
2023-06-19T07:01:06.576Z,21.75
2023-06-19T07:02:06.643Z,21.78
2023-06-19T07:03:06.718Z,21.80
2023-06-19T07:04:06.797Z,21.85
2023-06-19T07:05:06.896Z,21.89
2023-06-19T07:06:06.967Z,21.91
2023-06-19T07:07:07.018Z,21.97
2023-06-19T07:08:07.079Z,21.96
2023-06-19T07:09:07.156Z,21.94
2023-06-19T07:10:07.305Z,22.01
2023-06-19T07:11:07.342Z,21.99
2023-06-19T07:12:07.406Z,22.07
2023-06-19T07:13:07.573Z,22.12
2023-06-19T07:14:07.581Z,22.15
2023-06-19T07:15:07.637Z,22.15
2023-06-19T07:16:07.702Z,22.25
2023-06-19T07:17:07.884Z,22.36
2023-06-19T07:18:07.854Z,22.51
2023-06-19T07:19:07.916Z,22.58
2023-06-19T07:20:07.989Z,22.74
2023-06-19T07:21:08.138Z,22.83
2023-06-19T07:22:08.144Z,22.86
2023-06-19T07:23:08.284Z,22.81
2023-06-19T07:24:08.427Z,22.74
2023-06-19T07:25:08.389Z,22.73
2023-06-19T07:26:08.432Z,22.71
2023-06-19T07:27:08.570Z,22.77
2023-06-19T07:28:08.517Z,22.88
2023-06-19T07:29:08.711Z,22.91
2023-06-19T07:30:09.770Z,22.81
2023-06-19T07:31:08.783Z,22.96
2023-06-19T07:32:08.989Z,23.04
2023-06-19T07:33:08.990Z,22.95
2023-06-19T07:34:09.063Z,23.04
2023-06-19T07:35:09.100Z,22.92
2023-06-19T07:36:09.145Z,22.80
2023-06-19T07:37:09.216Z,22.89
2023-06-19T07:38:09.288Z,23.07
2023-06-19T07:39:09.330Z,23.18
2023-06-19T07:40:09.390Z,23.23
2023-06-19T07:41:09.435Z,23.17
2023-06-19T07:42:09.526Z,23.21
2023-06-19T07:43:09.635Z,23.36
2023-06-19T07:44:09.649Z,23.47
2023-06-19T07:45:09.684Z,23.54
2023-06-19T07:46:09.820Z,23.69
2023-06-19T07:47:09.849Z,23.86
2023-06-19T07:48:09.983Z,24.00
2023-06-19T07:49:09.990Z,24.13
2023-06-19T07:50:10.091Z,24.19
2023-06-19T07:51:10.121Z,24.18
2023-06-19T07:52:17.142Z,24.13
2023-06-19T07:53:10.179Z,24.25
2023-06-19T07:54:12.923Z,24.22
2023-06-19T07:55:12.968Z,24.31
2023-06-19T07:56:10.346Z,24.25
2023-06-19T07:57:10.366Z,24.19
2023-06-19T07:58:10.511Z,24.22
2023-06-19T07:59:10.505Z,24.24
2023-06-19T08:00:10.536Z,24.32
2023-06-19T08:01:10.576Z,24.43
2023-06-19T08:02:10.676Z,24.34
2023-06-19T08:03:10.838Z,24.34
2023-06-19T08:04:10.778Z,24.40
2023-06-19T08:05:10.931Z,24.47
2023-06-19T08:06:10.855Z,24.61
2023-06-19T08:07:10.906Z,24.68
2023-06-19T08:08:10.948Z,24.74
2023-06-19T08:09:10.988Z,24.69
2023-06-19T08:10:28.032Z,24.71
2023-06-19T08:11:12.033Z,24.65
2023-06-19T08:12:11.069Z,24.55
2023-06-19T08:13:11.178Z,24.55
2023-06-19T08:14:11.214Z,24.56
2023-06-19T08:15:11.244Z,24.56
2023-06-19T08:16:11.273Z,24.65
2023-06-19T08:17:11.416Z,24.71
2023-06-19T08:18:11.380Z,24.74
2023-06-19T08:19:11.421Z,24.62
2023-06-19T08:20:11.446Z,24.56
2023-06-19T08:21:11.483Z,24.44
2023-06-19T08:22:11.523Z,24.44
2023-06-19T08:23:11.567Z,24.46
2023-06-19T08:24:11.642Z,24.46
2023-06-19T08:25:11.701Z,24.43
2023-06-19T08:26:11.737Z,24.46
2023-06-19T08:27:11.806Z,24.51
2023-06-19T08:28:11.857Z,24.63
2023-06-19T08:29:11.894Z,24.63
2023-06-19T08:30:11.920Z,24.58
2023-06-19T08:31:11.960Z,24.55
2023-06-19T08:32:11.985Z,24.50
2023-06-19T08:33:12.097Z,24.43
2023-06-19T08:34:12.072Z,24.43
2023-06-19T08:35:12.117Z,24.48
2023-06-19T08:36:12.152Z,24.51
2023-06-19T08:37:12.196Z,24.58
2023-06-19T08:38:12.251Z,24.56
2023-06-19T08:39:12.297Z,24.63
2023-06-19T08:40:12.411Z,24.61
2023-06-19T08:41:12.458Z,24.58
2023-06-19T08:42:12.505Z,24.61
2023-06-19T08:43:12.570Z,24.61
2023-06-19T08:44:12.588Z,24.68
2023-06-19T08:45:12.639Z,24.77
2023-06-19T08:46:12.756Z,24.78
2023-06-19T08:47:12.782Z,24.84
2023-06-19T08:48:12.813Z,24.96
2023-06-19T08:49:12.843Z,25.07
2023-06-19T08:50:12.877Z,25.16
2023-06-19T08:51:12.924Z,25.18
2023-06-19T08:52:12.940Z,25.30
2023-06-19T08:53:12.997Z,25.31
2023-06-19T08:54:13.066Z,25.39
2023-06-19T08:55:13.110Z,25.48
2023-06-19T08:56:13.116Z,25.58
2023-06-19T08:57:13.492Z,25.59
2023-06-19T08:58:13.224Z,25.68
2023-06-19T08:59:13.265Z,25.76
2023-06-19T09:00:13.284Z,25.91
2023-06-19T09:01:13.324Z,25.99
2023-06-19T09:02:13.419Z,26.08
2023-06-19T09:03:14.959Z,26.24
2023-06-19T09:04:13.608Z,26.30
2023-06-19T09:05:13.550Z,26.41
2023-06-19T09:06:13.603Z,26.36
2023-06-19T09:07:13.791Z,26.30
2023-06-19T09:08:13.704Z,26.16
2023-06-19T09:09:13.721Z,25.78
2023-06-19T09:10:13.761Z,25.70
2023-06-19T09:11:13.782Z,25.74
2023-06-19T09:12:13.791Z,25.67
2023-06-19T09:13:13.821Z,25.56
2023-06-19T09:14:13.937Z,25.54
2023-06-19T09:15:13.969Z,25.48
2023-06-19T09:16:14.009Z,25.41
2023-06-19T09:17:14.064Z,25.36
2023-06-19T09:18:14.111Z,25.33
2023-06-19T09:19:14.158Z,25.39
2023-06-19T09:20:14.183Z,25.29
2023-06-19T09:21:14.210Z,25.25
2023-06-19T09:22:14.268Z,25.16
2023-06-19T09:23:14.337Z,25.24
2023-06-19T09:24:14.565Z,25.24
2023-06-19T09:25:14.502Z,25.22
2023-06-19T09:26:14.533Z,25.29
2023-06-19T09:27:14.570Z,25.36
2023-06-19T09:28:14.673Z,25.43
2023-06-19T09:29:15.846Z,25.41
2023-06-19T09:30:14.734Z,25.41
2023-06-19T09:31:14.791Z,25.40
2023-06-19T09:32:14.795Z,25.33
2023-06-19T09:33:14.895Z,25.31
2023-06-19T09:34:14.844Z,25.30
2023-06-19T09:35:14.888Z,25.24
2023-06-19T09:36:14.916Z,25.33
2023-06-19T09:37:14.960Z,25.37
2023-06-19T09:38:15.017Z,25.41
2023-06-19T09:39:15.040Z,25.37
2023-06-19T09:40:15.075Z,25.37
2023-06-19T09:41:15.109Z,25.34
2023-06-19T09:42:15.137Z,25.25
2023-06-19T09:43:15.170Z,25.26
2023-06-19T09:44:15.195Z,25.36
2023-06-19T09:45:15.233Z,25.43
2023-06-19T09:46:15.261Z,25.49
2023-06-19T09:47:15.372Z,25.62
2023-06-19T09:48:15.365Z,25.68
2023-06-19T09:49:15.416Z,25.62
2023-06-19T09:50:15.432Z,25.55
2023-06-19T09:51:15.440Z,25.43
2023-06-19T09:52:15.458Z,25.51
2023-06-19T09:53:15.499Z,25.56
2023-06-19T09:54:15.551Z,25.48
2023-06-19T09:55:15.588Z,25.43
2023-06-19T09:56:15.608Z,25.44
2023-06-19T09:57:15.646Z,25.43
2023-06-19T09:58:15.699Z,25.48
2023-06-19T09:59:15.731Z,25.41
2023-06-19T10:00:15.769Z,25.44
2023-06-19T10:01:15.789Z,25.55
2023-06-19T10:02:15.861Z,25.56
2023-06-19T10:03:16.031Z,25.56
2023-06-19T10:04:15.985Z,25.61
2023-06-19T10:05:16.218Z,25.68
2023-06-19T10:06:16.126Z,25.71
2023-06-19T10:07:16.173Z,25.76
2023-06-19T10:08:16.223Z,25.86
2023-06-19T10:09:16.261Z,25.91
2023-06-19T10:10:16.275Z,26.01
2023-06-19T10:11:16.312Z,26.03
2023-06-19T10:12:16.347Z,26.04
2023-06-19T10:13:16.393Z,26.01
2023-06-19T10:14:16.410Z,26.08
2023-06-19T10:15:16.443Z,26.06
2023-06-19T10:16:16.515Z,26.08
2023-06-19T10:17:16.525Z,26.10
2023-06-19T10:18:16.539Z,26.18
2023-06-19T10:19:16.615Z,26.13
2023-06-19T10:20:16.599Z,26.11
2023-06-19T10:21:16.637Z,26.27
2023-06-19T10:22:16.657Z,26.37
2023-06-19T10:23:16.705Z,26.51
2023-06-19T10:24:16.769Z,26.55
2023-06-19T10:25:16.764Z,26.55
2023-06-19T10:26:16.774Z,26.44
2023-06-19T10:27:16.817Z,26.44
2023-06-19T10:28:16.848Z,26.42
2023-06-19T10:29:16.877Z,26.42
2023-06-19T10:30:16.997Z,26.39
2023-06-19T10:31:16.931Z,26.36
2023-06-19T10:32:16.957Z,26.44
2023-06-19T10:33:16.997Z,26.53
2023-06-19T10:34:17.023Z,26.66
2023-06-19T10:35:17.056Z,26.61
2023-06-19T10:36:17.139Z,26.37
2023-06-19T10:37:17.175Z,26.51
2023-06-19T10:38:17.200Z,26.45
2023-06-19T10:39:17.236Z,26.44
2023-06-19T10:40:17.282Z,26.45
2023-06-19T10:41:17.298Z,26.26
2023-06-19T10:42:17.325Z,26.34
2023-06-19T10:43:17.342Z,26.49
2023-06-19T10:44:17.376Z,26.48
2023-06-19T10:45:17.392Z,26.55
2023-06-19T10:46:17.486Z,26.66
2023-06-19T10:47:17.534Z,26.78
2023-06-19T10:48:17.560Z,26.86
2023-06-19T10:49:17.563Z,26.96
2023-06-19T10:50:17.655Z,27.00
2023-06-19T10:51:17.638Z,26.88
2023-06-19T10:52:17.641Z,26.88
2023-06-19T10:53:17.681Z,26.92
2023-06-19T10:54:17.674Z,26.92
2023-06-19T10:55:17.693Z,26.97
2023-06-19T10:56:17.711Z,27.05
2023-06-19T10:57:17.717Z,27.18
2023-06-19T10:58:17.748Z,27.28
2023-06-19T10:59:17.744Z,27.20
2023-06-19T11:00:17.764Z,27.03
2023-06-19T11:01:17.759Z,27.00
2023-06-19T11:02:17.825Z,26.88
2023-06-19T11:03:17.945Z,26.86
2023-06-19T11:04:17.863Z,26.97
2023-06-19T11:05:17.865Z,26.81
2023-06-19T11:06:17.882Z,26.73
2023-06-19T11:07:17.872Z,26.64
2023-06-19T11:08:17.894Z,26.55
2023-06-19T11:09:17.909Z,26.45
2023-06-19T11:10:17.933Z,26.37
2023-06-19T11:11:17.924Z,26.31
2023-06-19T11:12:17.948Z,26.30
2023-06-19T11:13:18.004Z,26.37
2023-06-19T11:14:18.247Z,26.33
2023-06-19T11:15:18.080Z,26.36
2023-06-19T11:16:18.118Z,26.44
2023-06-19T11:17:18.140Z,26.53
2023-06-19T11:18:18.187Z,26.59
2023-06-19T11:19:18.214Z,26.64
2023-06-19T11:20:18.262Z,26.66
2023-06-19T11:21:18.285Z,26.56
2023-06-19T11:22:18.334Z,26.51
2023-06-19T11:23:18.420Z,26.59
2023-06-19T11:24:18.542Z,26.37
2023-06-19T11:25:18.452Z,26.37
2023-06-19T11:26:18.476Z,26.46
2023-06-19T11:27:18.479Z,26.49
2023-06-19T11:28:18.523Z,26.52
2023-06-19T11:29:18.542Z,26.64
2023-06-19T11:30:18.585Z,26.73
2023-06-19T11:31:18.665Z,26.67
2023-06-19T11:32:18.690Z,26.79
2023-06-19T11:33:18.743Z,26.85
2023-06-19T11:34:19.643Z,26.92
2023-06-19T11:35:18.850Z,26.91
2023-06-19T11:36:18.863Z,26.88
2023-06-19T11:37:18.903Z,26.82
2023-06-19T11:38:18.931Z,26.76
2023-06-19T11:39:19.136Z,26.86
2023-06-19T11:40:18.984Z,27.00
2023-06-19T11:41:18.993Z,27.19
2023-06-19T11:42:19.020Z,27.37
2023-06-19T11:43:19.045Z,27.64
2023-06-19T11:44:19.062Z,27.64
2023-06-19T11:45:19.076Z,27.75
2023-06-19T11:46:19.172Z,27.64
2023-06-19T11:47:19.144Z,27.81
2023-06-19T11:48:19.189Z,28.12
2023-06-19T11:49:19.249Z,28.20
2023-06-19T11:50:19.281Z,28.22
2023-06-19T11:51:19.309Z,28.50
2023-06-19T11:52:19.306Z,28.75
2023-06-19T11:53:19.320Z,28.86
2023-06-19T11:54:19.331Z,29.13
2023-06-19T11:55:19.319Z,28.96
2023-06-19T11:56:19.319Z,28.72
2023-06-19T11:57:19.324Z,28.46
2023-06-19T11:58:19.354Z,28.31
2023-06-19T11:59:19.351Z,28.27
2023-06-19T12:00:19.339Z,27.98
2023-06-19T12:01:19.333Z,27.97
2023-06-19T12:02:19.474Z,28.01
2023-06-19T12:03:19.591Z,28.00
2023-06-19T12:04:19.687Z,28.10
2023-06-19T12:05:19.453Z,28.06
2023-06-19T12:06:19.438Z,28.20
2023-06-19T12:07:19.437Z,28.40
2023-06-19T12:08:19.445Z,28.55
2023-06-19T12:09:19.453Z,28.70
2023-06-19T12:10:19.467Z,29.00
2023-06-19T12:11:19.472Z,28.80
2023-06-19T12:12:19.485Z,28.84
2023-06-19T12:13:19.496Z,28.89
2023-06-19T12:14:19.495Z,28.83
2023-06-19T12:15:19.490Z,28.65
2023-06-19T12:16:19.585Z,28.62
2023-06-19T12:17:19.526Z,28.78
2023-06-19T12:18:19.551Z,28.86
2023-06-19T12:19:21.147Z,29.02
2023-06-19T12:20:19.576Z,29.16
2023-06-19T12:21:34.108Z,29.44
2023-06-19T12:22:20.536Z,29.69
2023-06-19T12:23:19.533Z,30.33
2023-06-19T12:24:19.575Z,30.46
2023-06-19T12:25:19.511Z,30.36
2023-06-19T12:26:19.486Z,30.32
2023-06-19T12:27:19.451Z,30.46
2023-06-19T12:28:19.469Z,30.71
2023-06-19T12:29:19.462Z,30.86
2023-06-19T12:30:19.463Z,31.28
2023-06-19T12:31:19.507Z,31.59
2023-06-19T12:32:19.406Z,31.36
2023-06-19T12:33:19.407Z,31.52
2023-06-19T12:34:30.364Z,31.69
2023-06-19T12:35:20.356Z,32.04
2023-06-19T12:36:19.360Z,32.22
2023-06-19T12:37:19.337Z,32.35
2023-06-19T12:38:19.330Z,32.35
2023-06-19T12:39:19.330Z,32.20
2023-06-19T12:40:19.297Z,32.44
2023-06-19T12:41:19.270Z,32.30
2023-06-19T12:42:19.256Z,32.09
2023-06-19T12:43:19.228Z,31.69
2023-06-19T12:44:19.593Z,31.89
2023-06-19T12:45:19.251Z,31.36
2023-06-19T12:46:19.270Z,31.07
2023-06-19T12:47:19.294Z,31.26
2023-06-19T12:48:19.210Z,31.00
2023-06-19T12:49:19.200Z,30.99
2023-06-19T12:50:19.201Z,30.91
2023-06-19T12:51:19.189Z,30.91
2023-06-19T12:52:19.183Z,30.81
2023-06-19T12:53:19.191Z,30.95